createdAt,value
2022-09-12T00:00:34.038Z,14.81
2022-09-12T00:01:34.082Z,14.83
2022-09-12T00:02:33.978Z,14.83
2022-09-12T00:03:33.988Z,14.84
2022-09-12T00:04:33.990Z,14.80
2022-09-12T00:05:33.998Z,14.80
2022-09-12T00:06:33.938Z,14.78
2022-09-12T00:07:33.918Z,14.78
2022-09-12T00:08:33.975Z,14.75
2022-09-12T00:09:33.940Z,14.75
2022-09-12T00:10:33.898Z,14.74
2022-09-12T00:11:33.975Z,14.72
2022-09-12T00:12:33.838Z,14.72
2022-09-12T00:13:35.563Z,14.71
2022-09-12T00:14:33.918Z,14.69
2022-09-12T00:15:33.838Z,14.67
2022-09-12T00:16:33.891Z,14.65
2022-09-12T00:17:33.799Z,14.65
2022-09-12T00:18:33.777Z,14.65
2022-09-12T00:19:33.765Z,14.64
2022-09-12T00:20:33.767Z,14.71
2022-09-12T00:21:33.768Z,14.75
2022-09-12T00:22:33.717Z,14.71
2022-09-12T00:23:33.705Z,14.62
2022-09-12T00:24:33.731Z,14.57
2022-09-12T00:25:34.618Z,14.57
2022-09-12T00:26:33.685Z,14.53
2022-09-12T00:27:33.695Z,14.52
2022-09-12T00:28:33.637Z,14.52
2022-09-12T00:29:33.618Z,14.53
2022-09-12T00:30:33.615Z,14.52
2022-09-12T00:31:33.649Z,14.50
2022-09-12T00:32:33.579Z,14.52
2022-09-12T00:33:33.606Z,14.49
2022-09-12T00:34:33.558Z,14.49
2022-09-12T00:35:33.560Z,14.49
2022-09-12T00:36:33.548Z,14.49
2022-09-12T00:37:33.508Z,14.50
2022-09-12T00:38:33.507Z,14.52
2022-09-12T00:39:33.522Z,14.52
2022-09-12T00:40:33.471Z,14.52
2022-09-12T00:41:33.452Z,14.53
2022-09-12T00:42:33.438Z,14.53
2022-09-12T00:43:33.439Z,14.52
2022-09-12T00:44:33.425Z,14.49
2022-09-12T00:45:33.470Z,14.47
2022-09-12T00:46:33.418Z,14.46
2022-09-12T00:47:33.404Z,14.44
2022-09-12T00:48:33.365Z,14.42
2022-09-12T00:49:33.357Z,14.43
2022-09-12T00:50:33.344Z,14.39
2022-09-12T00:51:33.340Z,14.39
2022-09-12T00:52:33.309Z,14.39
2022-09-12T00:53:33.288Z,14.46
2022-09-12T00:54:33.290Z,14.47
2022-09-12T00:55:33.288Z,14.47
2022-09-12T00:56:33.278Z,14.44
2022-09-12T00:57:33.245Z,14.44
2022-09-12T00:58:33.220Z,14.39
2022-09-12T00:59:33.210Z,14.39
2022-09-12T01:00:33.247Z,14.39
2022-09-12T01:01:33.275Z,14.39
2022-09-12T01:02:33.204Z,14.38
2022-09-12T01:03:33.162Z,14.38
2022-09-12T01:04:33.159Z,14.37
2022-09-12T01:05:33.167Z,14.37
2022-09-12T01:06:33.133Z,14.35
2022-09-12T01:07:36.843Z,14.34
2022-09-12T01:08:34.110Z,14.34
2022-09-12T01:09:33.095Z,14.34
2022-09-12T01:10:33.049Z,14.34
2022-09-12T01:11:33.091Z,14.34
2022-09-12T01:12:33.037Z,14.35
2022-09-12T01:13:40.553Z,14.34
2022-09-12T01:14:33.003Z,14.37
2022-09-12T01:15:33.015Z,14.38
2022-09-12T01:16:33.061Z,14.39
2022-09-12T01:17:32.994Z,14.38
2022-09-12T01:18:32.950Z,14.38
2022-09-12T01:19:32.943Z,14.38
2022-09-12T01:20:32.934Z,14.37
2022-09-12T01:21:32.934Z,14.35
2022-09-12T01:22:32.932Z,14.34
2022-09-12T01:23:32.915Z,14.31
2022-09-12T01:24:32.854Z,14.29
2022-09-12T01:25:32.881Z,14.28
2022-09-12T01:26:32.845Z,14.25
2022-09-12T01:27:32.823Z,14.21
2022-09-12T01:28:32.842Z,14.21
2022-09-12T01:29:32.845Z,14.20
2022-09-12T01:30:32.816Z,14.19
2022-09-12T01:31:32.781Z,14.19
2022-09-12T01:32:32.839Z,14.17
2022-09-12T01:33:32.747Z,14.13
2022-09-12T01:34:32.755Z,14.09
2022-09-12T01:35:32.737Z,14.04
2022-09-12T01:36:32.733Z,14.04
2022-09-12T01:37:32.693Z,14.02
2022-09-12T01:38:32.702Z,13.99
2022-09-12T01:39:32.666Z,13.95
2022-09-12T01:40:32.685Z,13.92
2022-09-12T01:41:32.668Z,13.92
2022-09-12T01:42:32.641Z,13.92
2022-09-12T01:43:32.623Z,13.94
2022-09-12T01:44:32.634Z,13.94
2022-09-12T01:45:32.624Z,13.91
2022-09-12T01:46:32.602Z,13.91
2022-09-12T01:47:32.574Z,13.84
2022-09-12T01:48:32.544Z,13.83
2022-09-12T01:49:32.533Z,13.81
2022-09-12T01:50:32.576Z,13.79
2022-09-12T01:51:32.523Z,13.79
2022-09-12T01:52:32.510Z,13.74
2022-09-12T01:53:32.499Z,13.73
2022-09-12T01:54:32.482Z,13.71
2022-09-12T01:55:32.462Z,13.71
2022-09-12T01:56:32.490Z,13.69
2022-09-12T01:57:32.426Z,13.69
2022-09-12T01:58:32.453Z,13.67
2022-09-12T01:59:32.433Z,13.67
2022-09-12T02:00:32.393Z,13.67
2022-09-12T02:01:32.443Z,13.67
2022-09-12T02:02:32.443Z,13.67
2022-09-12T02:03:32.374Z,13.69
2022-09-12T02:04:34.386Z,13.69
2022-09-12T02:05:32.332Z,13.69
2022-09-12T02:06:32.331Z,13.69
2022-09-12T02:07:32.290Z,13.65
2022-09-12T02:08:32.281Z,13.65
2022-09-12T02:09:32.258Z,13.63
2022-09-12T02:10:32.822Z,13.62
2022-09-12T02:11:32.265Z,13.62
2022-09-12T02:12:32.219Z,13.59
2022-09-12T02:13:32.230Z,13.58
2022-09-12T02:14:32.210Z,13.58
2022-09-12T02:15:32.193Z,13.58
2022-09-12T02:16:32.252Z,13.55
2022-09-12T02:17:32.163Z,13.54
2022-09-12T02:18:32.149Z,13.51
2022-09-12T02:19:32.156Z,13.51
2022-09-12T02:20:47.426Z,13.51
2022-09-12T02:21:33.119Z,13.49
2022-09-12T02:22:32.112Z,13.47
2022-09-12T02:23:32.120Z,13.49
2022-09-12T02:24:32.081Z,13.51
2022-09-12T02:25:32.041Z,13.52
2022-09-12T02:26:32.032Z,13.54
2022-09-12T02:27:32.084Z,13.52
2022-09-12T02:28:32.031Z,13.52
2022-09-12T02:29:32.012Z,13.52
2022-09-12T02:30:31.996Z,13.54
2022-09-12T02:31:31.972Z,13.54
2022-09-12T02:32:31.961Z,13.51
2022-09-12T02:33:31.977Z,13.47
2022-09-12T02:34:31.922Z,13.49
2022-09-12T02:35:31.901Z,13.49
2022-09-12T02:36:31.902Z,13.47
2022-09-12T02:37:31.892Z,13.49
2022-09-12T02:38:31.922Z,13.46
2022-09-12T02:39:31.901Z,13.47
2022-09-12T02:40:31.838Z,13.44
2022-09-12T02:41:31.885Z,13.44
2022-09-12T02:42:31.835Z,13.43
2022-09-12T02:43:31.818Z,13.43
2022-09-12T02:44:31.775Z,13.44
2022-09-12T02:45:31.842Z,13.44
2022-09-12T02:46:31.768Z,13.44
2022-09-12T02:47:31.769Z,13.44
2022-09-12T02:48:31.731Z,13.41
2022-09-12T02:49:31.713Z,13.43
2022-09-12T02:50:31.742Z,13.46
2022-09-12T02:51:31.761Z,13.46
2022-09-12T02:52:31.732Z,13.46
2022-09-12T02:53:31.683Z,13.49
2022-09-12T02:54:31.692Z,13.47
2022-09-12T02:55:31.656Z,13.49
2022-09-12T02:56:31.641Z,13.47
2022-09-12T02:57:31.618Z,13.47
2022-09-12T02:58:31.638Z,13.46
2022-09-12T02:59:31.591Z,13.46
2022-09-12T03:00:31.572Z,13.44
2022-09-12T03:01:31.606Z,13.43
2022-09-12T03:02:31.542Z,13.43
2022-09-12T03:03:31.527Z,13.43
2022-09-12T03:04:31.577Z,13.43
2022-09-12T03:05:31.519Z,13.41
2022-09-12T03:06:31.493Z,13.40
2022-09-12T03:07:31.503Z,13.40
2022-09-12T03:08:31.465Z,13.37
2022-09-12T03:09:31.479Z,13.36
2022-09-12T03:10:31.450Z,13.33
2022-09-12T03:11:31.473Z,13.36
2022-09-12T03:12:31.436Z,13.32
2022-09-12T03:13:31.436Z,13.32
2022-09-12T03:14:31.386Z,13.33
2022-09-12T03:15:31.372Z,13.32
2022-09-12T03:16:31.403Z,13.33
2022-09-12T03:17:31.377Z,13.30
2022-09-12T03:18:31.344Z,13.33
2022-09-12T03:19:31.301Z,13.33
2022-09-12T03:20:31.292Z,13.33
2022-09-12T03:21:31.313Z,13.33
2022-09-12T03:22:31.286Z,13.33
2022-09-12T03:23:31.325Z,13.36
2022-09-12T03:24:31.292Z,13.33
2022-09-12T03:25:31.239Z,13.32
2022-09-12T03:26:31.227Z,13.32
2022-09-12T03:27:31.237Z,13.30
2022-09-12T03:28:31.191Z,13.29
2022-09-12T03:29:31.248Z,13.27
2022-09-12T03:30:31.204Z,13.25
2022-09-12T03:31:31.177Z,13.25
2022-09-12T03:32:31.151Z,13.25
2022-09-12T03:33:31.144Z,13.25
2022-09-12T03:34:31.100Z,13.27
2022-09-12T03:35:31.171Z,13.27
2022-09-12T03:36:31.111Z,13.30
2022-09-12T03:37:31.097Z,13.29
2022-09-12T03:38:31.071Z,13.25
2022-09-12T03:39:31.039Z,13.25
2022-09-12T03:40:31.035Z,13.24
2022-09-12T03:41:31.075Z,13.25
2022-09-12T03:42:31.003Z,13.27
2022-09-12T03:43:31.021Z,13.32
2022-09-12T03:44:30.981Z,13.33
2022-09-12T03:45:31.027Z,13.36
2022-09-12T03:46:30.963Z,13.33
2022-09-12T03:47:30.973Z,13.32
2022-09-12T03:48:30.933Z,13.33
2022-09-12T03:49:30.951Z,13.32
2022-09-12T03:50:30.900Z,13.33
2022-09-12T03:51:30.913Z,13.33
2022-09-12T03:52:30.903Z,13.30
2022-09-12T03:53:30.870Z,13.29
2022-09-12T03:54:30.858Z,13.29
2022-09-12T03:55:30.887Z,13.25
2022-09-12T03:56:30.820Z,13.24
2022-09-12T03:57:30.843Z,13.18
2022-09-12T03:58:30.792Z,13.14
2022-09-12T03:59:30.819Z,13.09
2022-09-12T04:00:30.780Z,13.06
2022-09-12T04:01:30.846Z,13.04
2022-09-12T04:02:30.743Z,13.03
2022-09-12T04:03:30.738Z,13.00
2022-09-12T04:04:30.707Z,12.96
2022-09-12T04:05:30.681Z,12.95
2022-09-12T04:06:30.707Z,12.93
2022-09-12T04:07:30.690Z,12.93
2022-09-12T04:08:30.652Z,12.95
2022-09-12T04:09:30.654Z,12.93
2022-09-12T04:10:30.654Z,12.92
2022-09-12T04:11:30.632Z,12.93
2022-09-12T04:12:30.615Z,12.92
2022-09-12T04:13:30.635Z,12.92
2022-09-12T04:14:30.587Z,12.93
2022-09-12T04:15:30.571Z,12.93
2022-09-12T04:16:30.568Z,12.93
2022-09-12T04:17:30.560Z,12.92
2022-09-12T04:18:30.521Z,12.92
2022-09-12T04:19:30.530Z,12.88
2022-09-12T04:20:30.499Z,12.88
2022-09-12T04:21:30.498Z,12.87
2022-09-12T04:22:30.466Z,12.88
2022-09-12T04:23:30.463Z,12.88
2022-09-12T04:24:30.430Z,12.87
2022-09-12T04:25:30.453Z,12.87
2022-09-12T04:26:30.436Z,12.84
2022-09-12T04:27:30.419Z,12.85
2022-09-12T04:28:30.381Z,12.85
2022-09-12T04:29:30.386Z,12.85
2022-09-12T04:30:30.379Z,12.84
2022-09-12T04:31:30.389Z,12.79
2022-09-12T04:32:30.333Z,12.78
2022-09-12T04:33:30.320Z,12.75
2022-09-12T04:34:30.311Z,12.70
2022-09-12T04:35:30.299Z,12.70
2022-09-12T04:36:30.272Z,12.69
2022-09-12T04:37:30.323Z,12.70
2022-09-12T04:38:30.326Z,12.69
2022-09-12T04:39:30.239Z,12.69
2022-09-12T04:40:30.209Z,12.70
2022-09-12T04:41:30.210Z,12.67
2022-09-12T04:42:30.215Z,12.67
2022-09-12T04:43:30.197Z,12.66
2022-09-12T04:44:30.212Z,12.66
2022-09-12T04:45:30.169Z,12.63
2022-09-12T04:46:30.136Z,12.63
2022-09-12T04:47:30.119Z,12.63
2022-09-12T04:48:30.111Z,12.63
2022-09-12T04:49:30.165Z,12.64
2022-09-12T04:50:30.096Z,12.63
2022-09-12T04:51:30.079Z,12.64
2022-09-12T04:52:30.051Z,12.62
2022-09-12T04:53:30.070Z,12.62
2022-09-12T04:54:30.074Z,12.63
2022-09-12T04:55:30.051Z,12.64
2022-09-12T04:56:30.026Z,12.69
2022-09-12T04:57:30.059Z,12.74
2022-09-12T04:58:30.001Z,12.71
2022-09-12T04:59:29.982Z,12.74
2022-09-12T05:00:30.081Z,12.74
2022-09-12T05:01:30.004Z,12.74
2022-09-12T05:02:29.988Z,12.71
2022-09-12T05:03:29.959Z,12.69
2022-09-12T05:04:29.958Z,12.63
2022-09-12T05:05:29.921Z,12.60
2022-09-12T05:06:29.891Z,12.59
2022-09-12T05:07:29.918Z,12.59
2022-09-12T05:08:29.885Z,12.57
2022-09-12T05:09:29.858Z,12.56
2022-09-12T05:10:29.838Z,12.56
2022-09-12T05:11:46.735Z,12.56
2022-09-12T05:12:30.840Z,12.56
2022-09-12T05:13:29.790Z,12.57
2022-09-12T05:14:29.788Z,12.59
2022-09-12T05:15:29.763Z,12.60
2022-09-12T05:16:29.758Z,12.60
2022-09-12T05:17:29.732Z,12.60
2022-09-12T05:18:29.840Z,12.62
2022-09-12T05:19:29.756Z,12.63
2022-09-12T05:20:29.701Z,12.66
2022-09-12T05:21:29.676Z,12.66
2022-09-12T05:22:29.668Z,12.69
2022-09-12T05:23:29.725Z,12.69
2022-09-12T05:24:29.658Z,12.74
2022-09-12T05:25:29.645Z,12.75
2022-09-12T05:26:29.669Z,12.77
2022-09-12T05:27:29.620Z,12.82
2022-09-12T05:28:29.577Z,12.85
2022-09-12T05:29:29.573Z,12.85
2022-09-12T05:30:29.663Z,12.88
2022-09-12T05:31:29.551Z,12.88
2022-09-12T05:32:29.576Z,12.89
2022-09-12T05:33:29.684Z,12.88
2022-09-12T05:34:29.517Z,12.85
2022-09-12T05:35:29.511Z,12.85
2022-09-12T05:36:29.493Z,12.85
2022-09-12T05:37:29.489Z,12.85
2022-09-12T05:38:29.475Z,12.87
2022-09-12T05:39:29.448Z,12.88
2022-09-12T05:40:29.446Z,12.89
2022-09-12T05:41:29.382Z,12.92
2022-09-12T05:42:29.455Z,12.97
2022-09-12T05:43:29.372Z,13.04
2022-09-12T05:44:29.433Z,13.12
2022-09-12T05:45:29.332Z,13.20
2022-09-12T05:46:29.351Z,13.25
2022-09-12T05:47:29.309Z,13.30
2022-09-12T05:48:29.300Z,13.32
2022-09-12T05:49:29.287Z,13.36
2022-09-12T05:50:29.398Z,13.41
2022-09-12T05:51:29.320Z,13.49
2022-09-12T05:52:29.353Z,13.59
2022-09-12T05:53:29.405Z,13.70
2022-09-12T05:54:31.721Z,13.89
2022-09-12T05:55:29.238Z,14.16
2022-09-12T05:56:29.288Z,14.42
2022-09-12T05:57:29.210Z,14.71
2022-09-12T05:58:29.252Z,15.05
2022-09-12T05:59:29.171Z,15.15
2022-09-12T06:00:33.424Z,15.05
2022-09-12T06:01:29.223Z,14.88
2022-09-12T06:02:29.270Z,14.72
2022-09-12T06:03:29.166Z,14.62
2022-09-12T06:04:29.218Z,14.56
2022-09-12T06:05:29.079Z,14.53
2022-09-12T06:06:29.188Z,14.44
2022-09-12T06:07:29.028Z,14.37
2022-09-12T06:08:29.031Z,14.25
2022-09-12T06:09:29.058Z,14.19
2022-09-12T06:10:29.066Z,14.17
2022-09-12T06:11:29.051Z,14.17
2022-09-12T06:12:29.079Z,14.20
2022-09-12T06:13:28.980Z,14.25
2022-09-12T06:14:28.989Z,14.29
2022-09-12T06:15:28.977Z,14.31
2022-09-12T06:16:29.054Z,14.32
2022-09-12T06:17:28.938Z,14.29
2022-09-12T06:18:28.941Z,14.29
2022-09-12T06:19:28.902Z,14.25
2022-09-12T06:20:28.916Z,14.21
2022-09-12T06:21:28.907Z,14.24
2022-09-12T06:22:28.819Z,14.27
2022-09-12T06:23:28.845Z,14.28
2022-09-12T06:24:28.895Z,14.31
2022-09-12T06:25:28.808Z,14.34
2022-09-12T06:26:28.824Z,14.35
2022-09-12T06:27:28.779Z,14.34
2022-09-12T06:28:28.769Z,14.32
2022-09-12T06:29:28.806Z,14.34
2022-09-12T06:30:28.858Z,14.35
2022-09-12T06:31:28.729Z,14.35
2022-09-12T06:32:28.807Z,14.38
2022-09-12T06:33:28.809Z,14.44
2022-09-12T06:34:28.737Z,14.47
2022-09-12T06:35:28.650Z,14.49
2022-09-12T06:36:28.672Z,14.52
2022-09-12T06:37:28.665Z,14.53
2022-09-12T06:38:28.624Z,14.56
2022-09-12T06:39:28.619Z,14.60
2022-09-12T06:40:28.606Z,14.60
2022-09-12T06:41:28.618Z,14.54
2022-09-12T06:42:28.668Z,14.52
2022-09-12T06:43:28.663Z,14.49
2022-09-12T06:44:28.585Z,14.49
2022-09-12T06:45:28.511Z,14.49
2022-09-12T06:46:28.570Z,14.56
2022-09-12T06:47:28.547Z,14.64
2022-09-12T06:48:28.497Z,14.67
2022-09-12T06:49:28.537Z,14.72
2022-09-12T06:50:28.487Z,14.75
2022-09-12T06:51:28.497Z,14.78
2022-09-12T06:52:28.461Z,14.83
2022-09-12T06:53:28.416Z,14.88
2022-09-12T06:54:28.627Z,14.91
2022-09-12T06:55:28.395Z,14.99
2022-09-12T06:56:28.431Z,15.02
2022-09-12T06:57:28.378Z,15.05
2022-09-12T06:58:28.443Z,15.09
2022-09-12T06:59:28.335Z,15.12
2022-09-12T07:00:28.371Z,15.20
2022-09-12T07:01:28.408Z,15.24
2022-09-12T07:02:28.430Z,15.26
2022-09-12T07:03:28.290Z,15.27
2022-09-12T07:04:28.393Z,15.28
2022-09-12T07:05:28.240Z,15.30
2022-09-12T07:06:28.232Z,15.31
2022-09-12T07:07:28.302Z,15.33
2022-09-12T07:08:28.310Z,15.36
2022-09-12T07:09:28.219Z,15.41
2022-09-12T07:10:28.412Z,15.45
2022-09-12T07:11:28.200Z,15.48
2022-09-12T07:12:28.187Z,15.48
2022-09-12T07:13:28.210Z,15.51
2022-09-12T07:14:28.217Z,15.52
2022-09-12T07:15:28.149Z,15.51
2022-09-12T07:16:28.191Z,15.51
2022-09-12T07:17:28.120Z,15.54
2022-09-12T07:18:28.145Z,15.54
2022-09-12T07:19:28.155Z,15.59
2022-09-12T07:20:28.070Z,15.61
2022-09-12T07:21:28.047Z,15.63
2022-09-12T07:22:28.103Z,15.66
2022-09-12T07:23:28.079Z,15.70
2022-09-12T07:24:28.069Z,15.74
2022-09-12T07:25:28.059Z,15.75
2022-09-12T07:26:28.025Z,15.76
2022-09-12T07:27:28.000Z,15.81
2022-09-12T07:28:27.971Z,15.85
2022-09-12T07:29:43.384Z,15.82
2022-09-12T07:30:29.438Z,15.84
2022-09-12T07:31:27.911Z,15.85
2022-09-12T07:32:27.925Z,15.85
2022-09-12T07:33:27.944Z,15.85
2022-09-12T07:34:28.607Z,15.88
2022-09-12T07:35:27.881Z,15.92
2022-09-12T07:36:27.890Z,15.92
2022-09-12T07:37:27.905Z,15.94
2022-09-12T07:38:27.810Z,15.99
2022-09-12T07:39:27.986Z,16.03
2022-09-12T07:40:27.781Z,16.04
2022-09-12T07:41:27.788Z,16.06
2022-09-12T07:42:27.895Z,16.11
2022-09-12T07:43:27.755Z,16.14
2022-09-12T07:44:27.739Z,16.20
2022-09-12T07:45:27.712Z,16.25
2022-09-12T07:46:27.751Z,16.33
2022-09-12T07:47:27.722Z,16.38
2022-09-12T07:48:28.565Z,16.41
2022-09-12T07:49:27.660Z,16.42
2022-09-12T07:50:27.701Z,16.44
2022-09-12T07:51:27.619Z,16.44
2022-09-12T07:52:27.649Z,16.44
2022-09-12T07:53:27.737Z,16.49
2022-09-12T07:54:27.638Z,16.52
2022-09-12T07:55:27.577Z,16.53
2022-09-12T07:56:31.198Z,16.53
2022-09-12T07:57:28.553Z,16.55
2022-09-12T07:58:27.523Z,16.55
2022-09-12T07:59:50.951Z,16.58
2022-09-12T08:00:28.531Z,16.62
2022-09-12T08:01:27.552Z,16.65
2022-09-12T08:02:27.561Z,16.71
2022-09-12T08:03:27.472Z,16.73
2022-09-12T08:04:27.450Z,16.75
2022-09-12T08:05:27.431Z,16.78
2022-09-12T08:06:27.677Z,16.81
2022-09-12T08:07:27.381Z,16.85
2022-09-12T08:08:27.391Z,16.86
2022-09-12T08:09:27.362Z,16.86
2022-09-12T08:10:27.639Z,16.89
2022-09-12T08:11:27.343Z,16.92
2022-09-12T08:12:27.394Z,16.95
2022-09-12T08:13:27.369Z,16.98
2022-09-12T08:14:27.343Z,17.03
2022-09-12T08:15:27.451Z,17.07
2022-09-12T08:16:27.326Z,17.13
2022-09-12T08:17:27.462Z,17.20
2022-09-12T08:18:27.261Z,17.25
2022-09-12T08:19:27.260Z,17.26
2022-09-12T08:20:28.494Z,17.29
2022-09-12T08:21:27.204Z,17.30
2022-09-12T08:22:27.204Z,17.32
2022-09-12T08:23:27.163Z,17.38
2022-09-12T08:24:35.857Z,17.41
2022-09-12T08:25:27.132Z,17.44
2022-09-12T08:26:27.139Z,17.47
2022-09-12T08:27:27.134Z,17.53
2022-09-12T08:29:37.177Z,17.54
2022-09-12T08:30:37.007Z,17.54
2022-09-12T08:31:36.962Z,17.54
2022-09-12T08:32:36.967Z,17.55
2022-09-12T08:33:36.977Z,17.59
2022-09-12T08:34:36.961Z,17.63
2022-09-12T08:35:36.978Z,17.66
2022-09-12T08:36:37.062Z,17.71
2022-09-12T08:37:36.888Z,17.76
2022-09-12T08:38:36.872Z,17.81
2022-09-12T08:39:43.775Z,17.88
2022-09-12T08:40:36.831Z,17.89
2022-09-12T08:41:36.858Z,17.94
2022-09-12T08:42:36.817Z,17.97
2022-09-12T08:43:36.822Z,18.02
2022-09-12T08:44:46.691Z,18.06
2022-09-12T08:45:37.797Z,18.12
2022-09-12T08:46:37.459Z,18.17
2022-09-12T08:47:36.771Z,18.18
2022-09-12T08:48:36.750Z,18.19
2022-09-12T08:49:36.760Z,18.24
2022-09-12T08:50:52.683Z,18.28
2022-09-12T08:51:37.700Z,18.31
2022-09-12T08:52:36.665Z,18.31
2022-09-12T08:53:36.662Z,18.36
2022-09-12T08:54:36.787Z,18.40
2022-09-12T08:55:36.764Z,18.44
2022-09-12T08:56:36.620Z,18.49
2022-09-12T08:57:36.612Z,18.54
2022-09-12T08:58:36.583Z,18.59
2022-09-12T08:59:36.625Z,18.61
2022-09-12T09:00:36.600Z,18.67
2022-09-12T09:01:36.617Z,18.72
2022-09-12T09:02:36.591Z,18.77
2022-09-12T09:03:36.535Z,18.77
2022-09-12T09:04:36.529Z,18.80
2022-09-12T09:06:46.495Z,18.91
2022-09-12T09:07:46.330Z,18.95
2022-09-12T09:08:46.372Z,18.99
2022-09-12T09:09:46.320Z,18.97
2022-09-12T09:10:46.423Z,18.95
2022-09-12T09:11:46.287Z,18.97
2022-09-12T09:12:46.341Z,19.02
2022-09-12T09:13:46.459Z,19.05
2022-09-12T09:14:46.283Z,19.06
2022-09-12T09:15:46.320Z,19.10
2022-09-12T09:16:46.285Z,19.15
2022-09-12T09:17:46.228Z,19.23
2022-09-12T09:18:46.206Z,19.28
2022-09-12T09:19:50.502Z,19.32
2022-09-12T09:20:46.220Z,19.38
2022-09-12T09:21:46.192Z,19.48
2022-09-12T09:22:46.150Z,19.57
2022-09-12T09:23:46.369Z,19.61
2022-09-12T09:24:46.160Z,19.66
2022-09-12T09:25:46.111Z,19.69
2022-09-12T09:26:46.170Z,19.72
2022-09-12T09:27:46.081Z,19.76
2022-09-12T09:28:46.051Z,19.83
2022-09-12T09:29:46.043Z,19.90
2022-09-12T09:30:46.265Z,19.98
2022-09-12T09:31:46.032Z,20.05
2022-09-12T09:32:46.147Z,20.10
2022-09-12T09:33:46.132Z,20.18
2022-09-12T09:34:45.993Z,20.23
2022-09-12T09:35:45.989Z,20.25
2022-09-12T09:36:46.161Z,20.30
2022-09-12T09:37:45.982Z,20.30
2022-09-12T09:38:46.172Z,20.30
2022-09-12T09:39:46.065Z,20.31
2022-09-12T09:40:46.001Z,20.34
2022-09-12T09:41:45.915Z,20.38
2022-09-12T09:42:45.914Z,20.38
2022-09-12T09:43:45.873Z,20.39
2022-09-12T09:44:45.893Z,20.41
2022-09-12T09:45:47.862Z,20.46
2022-09-12T09:46:45.851Z,20.49
2022-09-12T09:47:45.909Z,20.51
2022-09-12T09:48:45.898Z,20.56
2022-09-12T09:49:45.784Z,20.62
2022-09-12T09:50:45.832Z,20.66
2022-09-12T09:51:45.823Z,20.65
2022-09-12T09:52:45.853Z,20.68
2022-09-12T09:53:45.737Z,20.71
2022-09-12T09:54:45.775Z,20.76
2022-09-12T09:55:45.758Z,20.80
2022-09-12T09:56:45.723Z,20.86
2022-09-12T09:57:45.724Z,20.95
2022-09-12T09:58:46.510Z,21.01
2022-09-12T09:59:45.655Z,21.05
2022-09-12T10:00:45.658Z,21.09
2022-09-12T10:01:45.657Z,21.17
2022-09-12T10:02:45.655Z,21.21
2022-09-12T10:03:45.670Z,21.23
2022-09-12T10:04:45.637Z,21.23
2022-09-12T10:05:45.635Z,21.24
2022-09-12T10:06:45.610Z,21.24
2022-09-12T10:07:45.574Z,21.29
2022-09-12T10:08:45.617Z,21.27
2022-09-12T10:09:45.555Z,21.29
2022-09-12T10:10:45.489Z,21.34
2022-09-12T10:11:46.125Z,21.39
2022-09-12T10:12:45.460Z,21.44
2022-09-12T10:13:45.455Z,21.48
2022-09-12T10:14:45.763Z,21.53
2022-09-12T10:15:45.486Z,21.59
2022-09-12T10:16:45.412Z,21.64
2022-09-12T10:17:45.529Z,21.72
2022-09-12T10:18:45.411Z,21.76
2022-09-12T10:19:49.844Z,21.75
2022-09-12T10:20:46.447Z,21.74
2022-09-12T10:21:45.446Z,21.75
2022-09-12T10:22:45.362Z,21.72
2022-09-12T10:23:45.500Z,21.78
2022-09-12T10:24:45.358Z,21.82
2022-09-12T10:25:45.364Z,21.83
2022-09-12T10:26:45.363Z,21.83
2022-09-12T10:27:45.336Z,21.83
2022-09-12T10:28:45.417Z,21.88
2022-09-12T10:29:45.304Z,21.94
2022-09-12T10:30:45.285Z,21.99
2022-09-12T10:31:45.218Z,22.06
2022-09-12T10:32:45.249Z,22.12
2022-09-12T10:33:45.279Z,22.20
2022-09-12T10:34:45.219Z,22.27
2022-09-12T10:35:45.314Z,22.34
2022-09-12T10:36:45.180Z,22.38
2022-09-12T10:37:48.332Z,22.44
2022-09-12T10:38:46.154Z,22.46
2022-09-12T10:39:45.175Z,22.53
2022-09-12T10:40:45.109Z,22.56
2022-09-12T10:41:45.158Z,22.60
2022-09-12T10:42:45.100Z,22.64
2022-09-12T10:43:45.149Z,22.68
2022-09-12T10:44:45.018Z,22.71
2022-09-12T10:45:45.088Z,22.72
2022-09-12T10:46:45.017Z,22.72
2022-09-12T10:47:45.179Z,22.75
2022-09-12T10:48:44.988Z,22.77
2022-09-12T10:49:44.974Z,22.83
2022-09-12T10:50:45.046Z,22.83
2022-09-12T10:51:44.945Z,22.80
2022-09-12T10:52:44.971Z,22.77
2022-09-12T10:53:45.118Z,22.71
2022-09-12T10:54:44.938Z,22.71
2022-09-12T10:55:44.927Z,22.75
2022-09-12T10:56:44.896Z,22.78
2022-09-12T10:57:45.009Z,22.75
2022-09-12T10:58:44.870Z,22.75
2022-09-12T10:59:44.855Z,22.83
2022-09-12T11:00:44.896Z,22.90
2022-09-12T11:01:44.879Z,22.89
2022-09-12T11:02:44.923Z,22.90
2022-09-12T11:03:44.777Z,22.90
2022-09-12T11:04:44.814Z,22.93
2022-09-12T11:05:44.878Z,22.92
2022-09-12T11:06:44.884Z,22.93
2022-09-12T11:07:44.880Z,22.90
2022-09-12T11:08:44.733Z,22.87
2022-09-12T11:09:44.741Z,22.87
2022-09-12T11:10:44.685Z,22.87
2022-09-12T11:11:44.778Z,22.84
2022-09-12T11:12:44.713Z,22.87
2022-09-12T11:13:44.742Z,22.96
2022-09-12T11:14:44.644Z,23.01
2022-09-12T11:15:44.694Z,23.04
2022-09-12T11:16:44.662Z,23.07
2022-09-12T11:17:44.639Z,23.09
2022-09-12T11:18:44.682Z,23.08
2022-09-12T11:19:44.646Z,23.09
2022-09-12T11:20:44.584Z,23.11
2022-09-12T11:21:44.731Z,23.14
2022-09-12T11:22:44.554Z,23.17
2022-09-12T11:23:44.593Z,23.17
2022-09-12T11:24:44.502Z,23.15
2022-09-12T11:25:44.526Z,23.20
2022-09-12T11:26:44.502Z,23.22
2022-09-12T11:27:44.571Z,23.22
2022-09-12T11:28:47.260Z,23.19
2022-09-12T11:29:44.523Z,23.14
2022-09-12T11:30:44.446Z,23.12
2022-09-12T11:31:44.418Z,23.15
2022-09-12T11:32:44.577Z,23.20
2022-09-12T11:33:44.592Z,23.23
2022-09-12T11:34:44.356Z,23.20
2022-09-12T11:35:44.677Z,23.20
2022-09-12T11:36:44.369Z,23.24
2022-09-12T11:37:44.339Z,23.27
2022-09-12T11:38:44.438Z,23.32
2022-09-12T11:39:44.364Z,23.39
2022-09-12T11:40:44.387Z,23.43
2022-09-12T11:41:44.498Z,23.40
2022-09-12T11:42:44.260Z,23.42
2022-09-12T11:43:44.296Z,23.45
2022-09-12T11:44:44.284Z,23.43
2022-09-12T11:45:44.297Z,23.43
2022-09-12T11:46:46.664Z,23.47
2022-09-12T11:47:44.229Z,23.52
2022-09-12T11:48:44.246Z,23.53
2022-09-12T11:49:44.362Z,23.55
2022-09-12T11:50:48.119Z,23.58
2022-09-12T11:51:44.309Z,23.62
2022-09-12T11:52:44.168Z,23.65
2022-09-12T11:53:44.141Z,23.67
2022-09-12T11:54:44.137Z,23.71
2022-09-12T11:55:44.190Z,23.72
2022-09-12T11:56:44.109Z,23.76
2022-09-12T11:57:44.068Z,23.79
2022-09-12T11:58:44.038Z,23.80
2022-09-12T11:59:44.114Z,23.76
2022-09-12T12:00:43.996Z,23.76
2022-09-12T12:01:48.320Z,23.76
2022-09-12T12:02:44.079Z,23.77
2022-09-12T12:03:44.034Z,23.76
2022-09-12T12:04:43.938Z,23.80
2022-09-12T12:05:44.006Z,23.87
2022-09-12T12:06:43.948Z,23.89
2022-09-12T12:07:45.751Z,23.94
2022-09-12T12:08:43.899Z,23.97
2022-09-12T12:09:43.977Z,23.98
2022-09-12T12:10:43.899Z,24.00
2022-09-12T12:11:43.935Z,24.00
2022-09-12T12:12:43.879Z,23.98
2022-09-12T12:13:43.842Z,23.97
2022-09-12T12:14:43.813Z,23.98
2022-09-12T12:15:43.836Z,23.98
2022-09-12T12:16:43.790Z,24.02
2022-09-12T12:17:43.843Z,24.04
2022-09-12T12:18:43.796Z,24.01
2022-09-12T12:19:43.848Z,24.01
2022-09-12T12:20:43.740Z,24.05
2022-09-12T12:21:43.761Z,24.10
2022-09-12T12:22:43.758Z,24.07
2022-09-12T12:23:43.740Z,24.05
2022-09-12T12:24:43.702Z,24.07
2022-09-12T12:25:43.675Z,24.07
2022-09-12T12:26:43.663Z,24.12
2022-09-12T12:27:43.660Z,24.13
2022-09-12T12:28:43.621Z,24.12
2022-09-12T12:29:44.400Z,24.12
2022-09-12T12:30:43.650Z,24.08
2022-09-12T12:31:43.584Z,24.10
2022-09-12T12:32:43.642Z,24.13
2022-09-12T12:33:43.602Z,24.17
2022-09-12T12:34:43.622Z,24.23
2022-09-12T12:35:43.602Z,24.26
2022-09-12T12:36:43.521Z,24.26
2022-09-12T12:37:43.522Z,24.29
2022-09-12T12:38:43.482Z,24.26
2022-09-12T12:39:43.605Z,24.27
2022-09-12T12:40:43.478Z,24.32
2022-09-12T12:41:43.462Z,24.45
2022-09-12T12:42:43.629Z,24.50
2022-09-12T12:43:43.441Z,24.52
2022-09-12T12:44:43.442Z,24.52
2022-09-12T12:45:43.422Z,24.54
2022-09-12T12:46:43.436Z,24.54
2022-09-12T12:47:43.373Z,24.56
2022-09-12T12:48:43.382Z,24.59
2022-09-12T12:49:43.364Z,24.63
2022-09-12T12:50:43.345Z,24.64
2022-09-12T12:51:43.343Z,24.69
2022-09-12T12:52:43.334Z,24.75
2022-09-12T12:53:43.295Z,24.79
2022-09-12T12:54:43.373Z,24.83